createdAt,value
2018-06-22T00:01:04.026Z,81.80
2018-06-22T00:03:32.038Z,81.80
2018-06-22T00:06:00.035Z,81.90
2018-06-22T00:08:28.026Z,81.90
2018-06-22T00:10:56.042Z,81.40
2018-06-22T00:13:24.077Z,82.00
2018-06-22T00:15:52.082Z,82.50
2018-06-22T00:18:20.082Z,82.70
2018-06-22T00:20:48.110Z,82.90
2018-06-22T00:23:16.230Z,83.20
2018-06-22T00:25:44.258Z,83.10
2018-06-22T00:28:12.264Z,83.40
2018-06-22T00:30:40.259Z,83.60
2018-06-22T00:35:36.118Z,83.20
2018-06-22T00:38:04.143Z,82.90
2018-06-22T00:40:32.178Z,83.00
2018-06-22T00:43:00.164Z,83.20
2018-06-22T00:45:28.175Z,83.30
2018-06-22T00:50:24.049Z,83.50
2018-06-22T00:52:52.057Z,83.30
2018-06-22T00:55:20.088Z,83.40
2018-06-22T00:57:48.097Z,83.70
2018-06-22T01:00:16.117Z,83.80
2018-06-22T01:02:44.112Z,83.90
2018-06-22T01:05:12.115Z,84.10
2018-06-22T01:07:40.121Z,84.40
2018-06-22T01:10:08.128Z,84.80
2018-06-22T01:12:36.187Z,84.90
2018-06-22T01:15:04.167Z,84.90
2018-06-22T01:17:32.758Z,85.00
2018-06-22T01:20:00.803Z,85.10
2018-06-22T01:22:28.840Z,85.20
2018-06-22T01:24:56.876Z,85.30
2018-06-22T01:27:24.872Z,85.30
2018-06-22T01:29:52.926Z,85.20
2018-06-22T01:32:20.920Z,85.70
2018-06-22T01:34:48.955Z,85.30
2018-06-22T01:37:16.953Z,86.00
2018-06-22T01:39:44.957Z,86.10
2018-06-22T01:42:13.056Z,86.30
2018-06-22T01:44:41.132Z,86.10
2018-06-22T01:47:09.119Z,86.40
2018-06-22T01:49:37.127Z,86.50
2018-06-22T01:52:05.243Z,86.70
2018-06-22T01:54:33.243Z,86.70
2018-06-22T01:57:01.231Z,86.70
2018-06-22T01:59:29.231Z,86.60
2018-06-22T02:01:57.242Z,86.80
2018-06-22T02:04:25.267Z,86.60
2018-06-22T02:06:53.285Z,86.80
2018-06-22T02:09:21.318Z,86.80
2018-06-22T02:11:49.322Z,87.30
2018-06-22T02:14:17.395Z,87.30
2018-06-22T02:16:45.403Z,87.10
2018-06-22T02:19:13.395Z,87.20
2018-06-22T02:21:41.388Z,87.30
2018-06-22T02:24:09.392Z,87.20
2018-06-22T02:26:37.379Z,87.30
2018-06-22T02:29:05.665Z,87.10
2018-06-22T02:31:33.664Z,87.00
2018-06-22T02:34:01.735Z,87.00
2018-06-22T02:36:29.724Z,87.10
2018-06-22T02:38:57.716Z,87.10
2018-06-22T02:41:25.708Z,87.50
2018-06-22T02:43:53.720Z,87.40
2018-06-22T02:46:21.736Z,87.40
2018-06-22T02:48:49.741Z,87.80
2018-06-22T02:51:17.818Z,87.50
2018-06-22T02:53:45.904Z,87.20
2018-06-22T02:56:13.922Z,87.20
2018-06-22T02:58:41.912Z,86.90
2018-06-22T03:01:09.916Z,86.90
2018-06-22T03:03:37.904Z,87.00
2018-06-22T03:06:05.904Z,87.00
2018-06-22T03:08:33.923Z,87.00
2018-06-22T03:11:01.980Z,86.70
2018-06-22T03:13:29.964Z,87.20
2018-06-22T03:15:58.013Z,86.20
2018-06-22T03:18:26.033Z,87.10
2018-06-22T03:20:54.037Z,87.10
2018-06-22T03:23:22.101Z,87.10
2018-06-22T03:25:50.103Z,86.70
2018-06-22T03:28:18.147Z,86.70
2018-06-22T03:30:46.145Z,86.70
2018-06-22T03:33:14.184Z,86.50
2018-06-22T03:35:42.151Z,86.30
2018-06-22T03:38:10.164Z,86.30
2018-06-22T03:40:38.171Z,86.50
2018-06-22T03:43:06.241Z,86.60
2018-06-22T03:45:34.236Z,86.60
2018-06-22T03:48:02.269Z,86.40
2018-06-22T03:50:30.283Z,86.50
2018-06-22T03:52:58.463Z,86.60
2018-06-22T03:55:26.484Z,86.20
2018-06-22T03:57:54.605Z,86.10
2018-06-22T04:00:22.651Z,86.30
2018-06-22T04:02:50.715Z,86.40
2018-06-22T04:05:18.724Z,86.30
2018-06-22T04:07:46.704Z,86.30
2018-06-22T04:10:14.750Z,86.70
2018-06-22T04:12:42.822Z,86.10
2018-06-22T04:15:10.844Z,86.40
2018-06-22T04:17:43.339Z,86.20
2018-06-22T04:20:11.362Z,86.30
2018-06-22T04:22:39.347Z,86.10
2018-06-22T04:25:07.375Z,86.10
2018-06-22T04:27:35.375Z,85.80
2018-06-22T04:30:03.413Z,86.20
2018-06-22T04:32:31.391Z,86.00
2018-06-22T04:34:59.384Z,86.00
2018-06-22T04:37:27.399Z,86.00
2018-06-22T04:39:55.444Z,86.20
2018-06-22T04:42:23.460Z,86.20
2018-06-22T04:44:51.451Z,85.90
2018-06-22T04:47:19.437Z,85.80
2018-06-22T04:49:47.472Z,85.30
2018-06-22T04:52:15.477Z,85.70
2018-06-22T04:54:43.521Z,85.60
2018-06-22T04:57:11.516Z,86.00
2018-06-22T04:59:39.548Z,85.70
2018-06-22T05:02:07.552Z,85.60
2018-06-22T05:04:35.624Z,85.60
2018-06-22T05:07:03.655Z,85.30
2018-06-22T05:09:31.660Z,85.20
2018-06-22T05:11:59.751Z,85.10
2018-06-22T05:14:27.755Z,84.80
2018-06-22T05:16:55.747Z,85.40
2018-06-22T05:19:23.754Z,85.90
2018-06-22T05:21:51.804Z,86.30
2018-06-22T05:26:54.554Z,86.00
2018-06-22T05:29:22.572Z,85.80
2018-06-22T05:31:50.553Z,85.30
2018-06-22T05:34:18.579Z,85.00
2018-06-22T05:36:46.567Z,85.20
2018-06-22T05:41:42.409Z,84.10
2018-06-22T05:46:38.680Z,83.80
2018-06-22T05:49:06.730Z,83.40
2018-06-22T05:51:34.871Z,82.60
2018-06-22T05:54:02.865Z,82.40
2018-06-22T05:56:30.912Z,82.30
2018-06-22T05:58:58.932Z,83.00
2018-06-22T06:01:27.104Z,82.40
2018-06-22T06:03:55.114Z,82.70
2018-06-22T06:06:23.104Z,82.80
2018-06-22T06:08:51.088Z,82.90
2018-06-22T06:11:19.081Z,83.00
2018-06-22T06:13:47.080Z,83.00
2018-06-22T06:16:15.101Z,82.80
2018-06-22T06:18:43.092Z,82.90
2018-06-22T06:21:11.223Z,83.10
2018-06-22T06:23:39.235Z,83.20
2018-06-22T06:26:07.251Z,83.40
2018-06-22T06:28:35.232Z,83.70
2018-06-22T06:31:03.251Z,82.80
2018-06-22T06:33:31.327Z,83.10
2018-06-22T06:35:59.359Z,83.30
2018-06-22T06:38:27.356Z,83.50
2018-06-22T06:40:55.339Z,83.10
2018-06-22T06:43:23.354Z,82.50
2018-06-22T06:45:51.350Z,82.40
2018-06-22T06:48:19.355Z,82.50
2018-06-22T06:50:47.387Z,82.80
2018-06-22T06:53:15.399Z,82.70
2018-06-22T06:55:43.400Z,83.00
2018-06-22T06:58:11.419Z,82.00
2018-06-22T07:00:39.411Z,81.90
2018-06-22T07:03:07.516Z,82.30
2018-06-22T07:05:35.514Z,82.30
2018-06-22T07:08:03.515Z,81.50
2018-06-22T07:10:31.705Z,81.40
2018-06-22T07:12:59.715Z,81.80
2018-06-22T07:15:27.715Z,81.40
2018-06-22T07:17:55.730Z,82.60
2018-06-22T07:22:51.670Z,85.80
2018-06-22T07:25:19.663Z,86.00
2018-06-22T07:27:47.695Z,85.50
2018-06-22T07:30:15.704Z,86.30
2018-06-22T07:32:43.744Z,85.60
2018-06-22T07:35:11.744Z,85.30
2018-06-22T07:37:39.845Z,85.10
2018-06-22T07:40:07.939Z,82.80
2018-06-22T07:42:35.972Z,81.10
2018-06-22T07:45:03.971Z,82.90
2018-06-22T07:47:32.005Z,83.80
2018-06-22T07:50:00.016Z,84.60
2018-06-22T07:52:28.041Z,84.40
2018-06-22T07:54:56.032Z,86.10
2018-06-22T07:57:24.032Z,85.30
2018-06-22T08:02:19.965Z,85.20
2018-06-22T08:04:47.995Z,84.90
2018-06-22T08:07:15.992Z,85.30
2018-06-22T08:09:44.028Z,85.00
2018-06-22T08:12:12.033Z,84.10
2018-06-22T08:14:40.080Z,83.60
2018-06-22T08:17:08.079Z,82.60
2018-06-22T08:19:36.171Z,80.60
2018-06-22T08:22:04.179Z,81.00
2018-06-22T08:24:32.241Z,80.40
2018-06-22T08:27:00.268Z,79.80
2018-06-22T08:29:28.387Z,79.00
2018-06-22T08:31:56.396Z,79.10
2018-06-22T08:34:24.411Z,79.50
2018-06-22T08:36:52.440Z,79.40
2018-06-22T08:39:20.457Z,80.00
2018-06-22T08:41:48.569Z,79.80
2018-06-22T08:44:16.559Z,79.30
2018-06-22T08:46:44.632Z,78.90
2018-06-22T08:49:12.667Z,78.30
2018-06-22T08:51:40.663Z,76.40
2018-06-22T08:54:08.732Z,76.40
2018-06-22T08:56:36.715Z,77.50
2018-06-22T08:59:04.702Z,77.00
2018-06-22T09:04:00.563Z,78.40
2018-06-22T09:06:28.592Z,77.70
2018-06-22T09:08:56.579Z,77.30
2018-06-22T09:11:24.574Z,77.00
2018-06-22T09:13:52.568Z,75.40
2018-06-22T09:16:20.663Z,76.30
2018-06-22T09:18:48.731Z,75.60
2018-06-22T09:21:16.831Z,76.40
2018-06-22T09:23:44.876Z,74.60
2018-06-22T09:26:12.859Z,74.90
2018-06-22T09:28:40.907Z,77.20
2018-06-22T09:31:08.912Z,79.50
2018-06-22T09:33:36.926Z,82.90
2018-06-22T09:36:04.940Z,85.80
2018-06-22T09:38:32.972Z,85.60
2018-06-22T09:41:00.972Z,87.00
2018-06-22T09:43:28.995Z,88.40
2018-06-22T09:45:57.012Z,86.80
2018-06-22T09:48:25.078Z,88.20
2018-06-22T09:50:53.038Z,89.40
2018-06-22T09:53:21.031Z,89.00
2018-06-22T09:55:49.168Z,89.00
2018-06-22T09:58:17.272Z,90.40
2018-06-22T10:00:50.263Z,91.10
2018-06-22T10:03:18.936Z,91.40
2018-06-22T10:05:47.161Z,91.60
2018-06-22T10:08:15.323Z,91.10
2018-06-22T10:10:43.468Z,91.00
2018-06-22T10:13:11.329Z,91.00
2018-06-22T10:15:39.334Z,90.20
2018-06-22T10:18:07.347Z,88.70
2018-06-22T10:20:35.432Z,88.40
2018-06-22T10:23:03.436Z,88.00
2018-06-22T10:25:31.481Z,85.10
2018-06-22T10:27:59.486Z,83.90
2018-06-22T10:30:27.508Z,83.70
2018-06-22T10:32:55.520Z,84.80
2018-06-22T10:35:23.547Z,84.10
2018-06-22T10:40:19.465Z,80.10
2018-06-22T10:42:47.476Z,79.60
2018-06-22T10:45:15.514Z,80.50
2018-06-22T10:47:43.514Z,80.50
2018-06-22T10:50:11.517Z,79.20
2018-06-22T10:52:39.615Z,77.90
2018-06-22T10:55:07.608Z,76.00
2018-06-22T10:57:35.628Z,74.70
2018-06-22T11:00:03.796Z,76.30
2018-06-22T11:02:31.733Z,75.60
2018-06-22T11:04:59.731Z,77.70
2018-06-22T11:07:27.716Z,78.60
2018-06-22T11:09:55.742Z,77.20
2018-06-22T11:12:23.743Z,73.70
2018-06-22T11:14:51.840Z,73.70
2018-06-22T11:17:19.874Z,75.50
2018-06-22T11:19:47.940Z,76.70
2018-06-22T11:22:15.963Z,82.30
2018-06-22T11:24:44.025Z,81.80
2018-06-22T11:27:12.012Z,86.90
2018-06-22T11:29:40.008Z,88.90
2018-06-22T11:32:08.184Z,90.90
2018-06-22T11:34:36.233Z,90.50
2018-06-22T11:37:04.481Z,90.60
2018-06-22T11:39:32.495Z,91.30
2018-06-22T11:42:00.523Z,91.30
2018-06-22T11:44:28.536Z,91.90
2018-06-22T11:46:56.584Z,91.80
2018-06-22T11:49:24.592Z,91.60
2018-06-22T11:51:52.626Z,91.60
2018-06-22T11:54:20.630Z,91.90
2018-06-22T11:56:48.656Z,91.60
2018-06-22T11:59:16.713Z,91.30
2018-06-22T12:01:44.742Z,92.00
2018-06-22T12:04:12.773Z,90.60
2018-06-22T12:06:40.776Z,91.00
2018-06-22T12:09:11.057Z,90.30
2018-06-22T12:11:39.308Z,87.50
2018-06-22T12:14:07.312Z,86.20
2018-06-22T12:16:35.329Z,88.70
2018-06-22T12:19:03.349Z,90.20
2018-06-22T12:23:59.203Z,88.20
2018-06-22T12:26:27.387Z,86.50
2018-06-22T12:28:56.436Z,84.80
2018-06-22T12:31:24.456Z,81.90
2018-06-22T12:33:52.467Z,82.70
2018-06-22T12:36:20.475Z,84.20
2018-06-22T12:38:48.525Z,80.10
2018-06-22T12:41:16.611Z,83.30
2018-06-22T12:43:44.592Z,77.50
2018-06-22T12:46:12.627Z,78.70
2018-06-22T12:51:08.651Z,79.40
2018-06-22T12:53:36.942Z,78.30
2018-06-22T12:56:05.228Z,77.60
2018-06-22T12:58:33.220Z,77.60
2018-06-22T13:01:01.300Z,73.50
2018-06-22T13:03:29.290Z,72.10
2018-06-22T13:05:57.307Z,67.60
2018-06-22T13:08:25.328Z,68.20
2018-06-22T13:10:53.526Z,68.10
2018-06-22T13:15:55.965Z,68.70
2018-06-22T13:18:23.964Z,66.60
2018-06-22T13:20:51.984Z,65.00
2018-06-22T13:23:19.988Z,63.10
2018-06-22T13:25:47.982Z,62.60
2018-06-22T13:28:15.996Z,61.40
2018-06-22T13:30:44.148Z,60.30
2018-06-22T13:33:12.203Z,62.60
2018-06-22T13:35:40.224Z,62.70
2018-06-22T13:38:08.228Z,62.60
2018-06-22T13:40:36.247Z,61.60
2018-06-22T13:43:04.250Z,60.70
2018-06-22T13:45:32.281Z,62.30
2018-06-22T13:48:00.280Z,63.90
2018-06-22T13:50:28.281Z,64.30
2018-06-22T13:52:56.302Z,66.20
2018-06-22T13:55:24.294Z,61.30
2018-06-22T13:57:52.348Z,57.80
2018-06-22T14:00:20.368Z,56.90
2018-06-22T14:02:48.384Z,56.70
2018-06-22T14:05:21.999Z,56.90
2018-06-22T14:07:50.004Z,58.90
2018-06-22T14:10:18.059Z,61.60
2018-06-22T14:12:46.085Z,59.00
2018-06-22T14:15:14.219Z,58.30
2018-06-22T14:17:42.226Z,57.00
2018-06-22T14:20:10.298Z,57.40
2018-06-22T14:22:38.272Z,58.40
2018-06-22T14:25:06.502Z,59.00
2018-06-22T14:27:34.532Z,61.40
2018-06-22T14:30:02.549Z,60.30
2018-06-22T14:32:30.673Z,63.20
2018-06-22T14:34:58.669Z,65.40
2018-06-22T14:37:26.726Z,67.00
2018-06-22T14:39:55.448Z,68.20
2018-06-22T14:42:23.452Z,66.70
2018-06-22T14:44:51.479Z,66.80
2018-06-22T14:47:19.499Z,66.90
2018-06-22T14:49:47.524Z,67.20
2018-06-22T14:52:15.551Z,67.80
2018-06-22T14:54:49.139Z,67.20
2018-06-22T14:57:22.621Z,66.00
2018-06-22T14:59:56.162Z,64.70
2018-06-22T15:02:29.631Z,63.60
2018-06-22T15:05:02.972Z,65.10
2018-06-22T15:07:36.576Z,62.30
2018-06-22T15:10:04.773Z,61.10
2018-06-22T15:12:32.777Z,62.10
2018-06-22T15:15:00.780Z,59.60
2018-06-22T15:17:28.873Z,59.70
2018-06-22T15:19:56.891Z,60.70
2018-06-22T15:22:24.902Z,59.10
2018-06-22T15:24:52.956Z,58.80
2018-06-22T15:27:20.981Z,56.80
2018-06-22T15:32:16.995Z,55.80
2018-06-22T15:34:50.399Z,56.50
2018-06-22T15:37:23.834Z,57.00
2018-06-22T15:39:57.308Z,56.60
2018-06-22T15:45:04.238Z,54.00
2018-06-22T15:47:37.827Z,54.00
2018-06-22T15:50:11.336Z,53.20
2018-06-22T15:52:44.952Z,54.80
2018-06-22T15:55:15.502Z,54.70
2018-06-22T15:57:43.513Z,53.60
2018-06-22T16:00:12.274Z,54.40
2018-06-22T16:02:45.667Z,54.60
2018-06-22T16:05:13.844Z,52.10
2018-06-22T16:10:09.660Z,52.60
2018-06-22T16:12:39.169Z,50.60
2018-06-22T16:15:13.961Z,52.00
2018-06-22T16:17:47.546Z,52.40
2018-06-22T16:20:21.075Z,52.80
2018-06-22T16:23:52.283Z,53.00
2018-06-22T16:26:25.750Z,52.90
2018-06-22T16:28:53.735Z,53.00
2018-06-22T16:31:22.259Z,52.80
2018-06-22T16:33:54.673Z,52.40
2018-06-22T16:36:22.660Z,53.20
2018-06-22T16:38:50.721Z,53.30
2018-06-22T16:41:18.739Z,54.10
2018-06-22T16:43:46.750Z,54.40
2018-06-22T16:46:14.771Z,54.80
2018-06-22T16:48:42.794Z,55.30
2018-06-22T16:51:10.836Z,55.10
2018-06-22T16:53:38.882Z,54.80
2018-06-22T16:56:06.880Z,55.10
2018-06-22T16:58:38.348Z,55.40
2018-06-22T17:03:35.034Z,57.00
2018-06-22T17:06:03.105Z,56.10
2018-06-22T17:08:36.661Z,56.50
2018-06-22T17:11:10.229Z,56.70
2018-06-22T17:13:43.783Z,56.70
2018-06-22T17:16:17.353Z,56.30
2018-06-22T17:18:57.124Z,56.20
2018-06-22T17:21:25.156Z,55.90
2018-06-22T17:23:53.561Z,56.20
2018-06-22T17:26:21.639Z,56.50
2018-06-22T17:28:49.649Z,56.70
2018-06-22T17:31:17.698Z,57.00
2018-06-22T17:33:45.811Z,56.40
2018-06-22T17:36:13.935Z,56.80
2018-06-22T17:38:42.274Z,57.20
2018-06-22T17:41:10.308Z,57.20
2018-06-22T17:43:38.431Z,57.50
2018-06-22T17:46:06.630Z,57.70
2018-06-22T17:48:34.576Z,57.40
2018-06-22T17:51:02.560Z,57.70
2018-06-22T17:53:30.632Z,57.90
2018-06-22T17:55:58.788Z,57.90
2018-06-22T17:58:26.861Z,58.20
2018-06-22T18:01:00.328Z,58.30
2018-06-22T18:03:33.755Z,58.60
2018-06-22T18:06:07.241Z,58.80
2018-06-22T18:08:40.872Z,59.00
2018-06-22T18:11:14.393Z,59.20
2018-06-22T18:13:42.451Z,59.80
2018-06-22T18:16:10.451Z,59.00
2018-06-22T18:18:38.514Z,58.70
2018-06-22T18:21:06.509Z,57.70
2018-06-22T18:23:34.521Z,58.40
2018-06-22T18:26:02.580Z,57.70
2018-06-22T18:28:30.655Z,57.50
2018-06-22T18:30:58.727Z,57.80
2018-06-22T18:33:26.755Z,57.50
2018-06-22T18:35:54.765Z,57.90
2018-06-22T18:38:22.792Z,57.70
2018-06-22T18:40:50.805Z,57.80
2018-06-22T18:43:24.247Z,58.10
2018-06-22T18:45:52.283Z,58.30
2018-06-22T18:48:20.311Z,58.10
2018-06-22T18:50:48.307Z,58.00
2018-06-22T18:53:21.871Z,58.10
2018-06-22T18:55:55.363Z,58.20
2018-06-22T18:58:28.959Z,58.20
2018-06-22T19:01:02.559Z,58.20
2018-06-22T19:03:36.115Z,58.00
2018-06-22T19:06:04.376Z,58.20
2018-06-22T19:08:32.447Z,58.70
2018-06-22T19:11:00.471Z,58.10
2018-06-22T19:13:28.493Z,57.20
2018-06-22T19:15:56.509Z,57.50
2018-06-22T19:18:24.499Z,57.90
2018-06-22T19:20:52.528Z,58.10
2018-06-22T19:23:20.535Z,58.20
2018-06-22T19:25:48.551Z,58.30
2018-06-22T19:28:16.573Z,58.40
2018-06-22T19:30:44.595Z,58.50
2018-06-22T19:33:12.603Z,58.40
2018-06-22T19:35:40.597Z,58.80
2018-06-22T19:38:08.645Z,58.80
2018-06-22T19:40:37.487Z,59.00
2018-06-22T19:45:38.777Z,59.20
2018-06-22T19:48:12.247Z,59.60
2018-06-22T19:50:45.640Z,59.40
2018-06-22T19:53:19.036Z,59.60
2018-06-22T19:55:47.096Z,59.60
2018-06-22T19:58:15.208Z,59.70
2018-06-22T20:00:43.278Z,59.90
2018-06-22T20:05:39.156Z,59.50
2018-06-22T20:08:07.156Z,59.00
2018-06-22T20:10:35.250Z,59.10
2018-06-22T20:13:03.284Z,59.40
2018-06-22T20:17:59.199Z,59.50
2018-06-22T20:20:27.369Z,59.50
2018-06-22T20:22:55.409Z,59.80
2018-06-22T20:25:28.867Z,59.90
2018-06-22T20:27:56.925Z,59.90
2018-06-22T20:30:24.938Z,60.00
2018-06-22T20:32:52.969Z,60.50
2018-06-22T20:35:26.583Z,61.00
2018-06-22T20:38:00.376Z,61.90
2018-06-22T20:40:33.829Z,61.90
2018-06-22T20:43:06.103Z,61.90
2018-06-22T20:45:43.411Z,62.10
2018-06-22T20:48:16.994Z,62.50
2018-06-22T20:50:44.984Z,62.80
2018-06-22T20:53:12.983Z,63.20
2018-06-22T20:55:41.007Z,63.50
2018-06-22T20:58:09.020Z,63.80
2018-06-22T21:00:37.055Z,64.10
2018-06-22T21:03:05.220Z,64.80
2018-06-22T21:05:33.252Z,65.10
2018-06-22T21:08:01.279Z,65.50
2018-06-22T21:10:29.344Z,66.10
2018-06-22T21:12:57.632Z,66.40
2018-06-22T21:15:25.452Z,66.70
2018-06-22T21:17:53.447Z,67.80
2018-06-22T21:20:21.440Z,67.30
2018-06-22T21:22:49.460Z,67.70
2018-06-22T21:25:17.488Z,67.60
2018-06-22T21:27:51.131Z,68.00
2018-06-22T21:30:24.639Z,67.90
2018-06-22T21:32:57.994Z,67.90
2018-06-22T21:35:31.516Z,67.90
2018-06-22T21:38:04.837Z,68.00
2018-06-22T21:40:32.876Z,68.10
2018-06-22T21:43:00.888Z,68.30
2018-06-22T21:45:28.888Z,68.50
2018-06-22T21:47:56.984Z,68.40
2018-06-22T21:50:25.008Z,68.70
2018-06-22T21:52:52.995Z,68.40
2018-06-22T21:55:21.008Z,68.40
2018-06-22T21:57:48.999Z,68.90
2018-06-22T22:00:25.896Z,68.60
2018-06-22T22:02:54.187Z,68.60
2018-06-22T22:05:22.252Z,68.90
2018-06-22T22:07:50.271Z,69.20
2018-06-22T22:10:22.565Z,69.50
2018-06-22T22:12:50.565Z,70.30
2018-06-22T22:15:18.616Z,71.00
2018-06-22T22:17:46.603Z,71.70
2018-06-22T22:20:14.635Z,72.50
2018-06-22T22:22:42.667Z,73.30
2018-06-22T22:25:10.678Z,74.40
2018-06-22T22:27:38.728Z,75.40
2018-06-22T22:30:06.740Z,75.80
2018-06-22T22:32:34.816Z,76.30
2018-06-22T22:37:30.743Z,77.20
2018-06-22T22:39:58.808Z,77.50
2018-06-22T22:42:26.883Z,77.50
2018-06-22T22:44:55.056Z,78.70
2018-06-22T22:47:23.128Z,78.20
2018-06-22T22:49:51.106Z,78.90
2018-06-22T22:52:19.108Z,77.90
2018-06-22T22:54:47.238Z,78.50
2018-06-22T22:57:15.492Z,78.40
2018-06-22T22:59:43.548Z,78.80
2018-06-22T23:02:11.556Z,80.00
2018-06-22T23:04:39.624Z,80.80
2018-06-22T23:07:07.599Z,81.10
2018-06-22T23:09:35.665Z,81.50
2018-06-22T23:12:03.640Z,82.20
2018-06-22T23:14:31.668Z,82.30
2018-06-22T23:16:59.680Z,82.80
2018-06-22T23:19:27.656Z,83.10
2018-06-22T23:21:55.669Z,83.30
2018-06-22T23:24:23.728Z,83.50
2018-06-22T23:26:51.943Z,83.40
2018-06-22T23:29:19.935Z,83.70
2018-06-22T23:31:48.024Z,83.70
2018-06-22T23:34:16.084Z,84.40
2018-06-22T23:36:44.144Z,85.00
2018-06-22T23:39:12.225Z,86.30
2018-06-22T23:41:40.232Z,87.00
2018-06-22T23:44:08.252Z,87.30
2018-06-22T23:46:36.240Z,87.20
2018-06-22T23:49:04.232Z,87.30
2018-06-22T23:51:32.371Z,87.40
2018-06-22T23:54:00.381Z,87.80
2018-06-22T23:56:28.441Z,88.00
2018-06-22T23:58:56.470Z,88.10
